Time;durP1;ratioP1;P1;durP2;ratioP2;P2;SDS_P1;SDS_P2;PMS_P1;PMS_P2;Temp;Humidity;BMP_temperature;BMP_pressure;BME280_temperature;BME280_humidity;BME280_pressure;Samples;Min_cycle;Max_cycle;Signal;HPM_P1;HPM_P2
2022/01/21 00:01:09;;;;;;;13.30;5.63;;;128.40;1766.40;;;;;;5053689;28;20029;-63
2022/01/21 00:03:36;;;;;;;13.73;5.55;;;128.40;1740.80;;;;;;5053456;28;20032;-63
2022/01/21 00:06:06;;;;;;;12.30;4.97;;;128.50;1740.80;;;;;;5053487;28;20072;-63
2022/01/21 00:08:32;;;;;;;13.77;4.88;;;128.50;1715.20;;;;;;5053239;28;20089;-63
2022/01/21 00:10:58;;;;;;;11.63;4.93;;;128.60;1740.80;;;;;;5053406;28;20033;-63
2022/01/21 00:13:33;;;;;;;12.30;4.93;;;128.50;1715.20;;;;;;5053298;28;20021;-63
2022/01/21 00:16:08;;;;;;;11.27;4.28;;;128.50;1715.20;;;;;;5053344;28;20033;-62
2022/01/21 00:18:37;;;;;;;10.13;3.60;;;128.50;1740.80;;;;;;5053496;28;20029;-63
2022/01/21 00:32:03;;;;;;;;;;;128.50;1689.60;;;;;;5053874;28;20491;-64
2022/01/21 00:34:28;;;;;;;7.13;3.08;;;128.50;1715.20;;;;;;5053878;28;19937;-64
2022/01/21 00:36:54;;;;;;;8.50;3.28;;;128.50;1715.20;;;;;;5055241;28;20487;-64
2022/01/21 00:39:23;;;;;;;7.60;3.17;;;128.40;1689.60;;;;;;5056738;28;20387;-64
2022/01/21 00:44:34;;;;;;;12.77;4.57;;;128.40;1664.00;;;;;;5057129;28;20090;-63
2022/01/21 00:47:00;;;;;;;13.15;5.75;;;128.30;1689.60;;;;;;5056914;28;20029;-63
2022/01/21 00:49:26;;;;;;;16.08;6.68;;;128.40;1689.60;;;;;;5056883;28;20062;-64
2022/01/21 00:51:52;;;;;;;17.35;6.60;;;128.20;1664.00;;;;;;5056591;28;20372;-64
2022/01/21 00:54:18;;;;;;;13.82;5.85;;;128.30;1689.60;;;;;;5056561;28;20033;-64
2022/01/21 00:56:44;;;;;;;12.13;5.03;;;128.40;1664.00;;;;;;5056498;28;20036;-63
2022/01/21 00:59:09;;;;;;;12.85;4.32;;;128.40;1664.00;;;;;;5056254;28;20414;-63
2022/01/21 01:01:35;;;;;;;10.98;3.97;;;128.50;1664.00;;;;;;5056593;28;20029;-63
2022/01/21 01:04:01;;;;;;;9.52;3.78;;;128.30;1638.40;;;;;;5056275;28;20028;-63
2022/01/21 01:06:27;;;;;;;8.30;3.45;;;128.40;1664.00;;;;;;5056569;28;20040;-64
2022/01/21 01:08:53;;;;;;;7.13;2.40;;;128.40;1638.40;;;;;;5055939;28;20425;-61
2022/01/21 01:22:04;;;;;;;6.85;2.30;;;128.30;1664.00;;;;;;5056056;28;20032;-61
2022/01/21 01:29:58;;;;;;;8.80;2.58;;;128.20;1689.60;;;;;;5055991;28;20110;-63
2022/01/21 01:32:26;;;;;;;6.10;2.63;;;128.20;1715.20;;;;;;5055781;28;20029;-63
2022/01/21 01:34:52;;;;;;;6.60;2.35;;;128.20;1715.20;;;;;;5056028;28;20017;-63
2022/01/21 01:38:12;;;;;;;9.73;3.38;;;128.20;1740.80;;;;;;5055789;28;20020;-62
2022/01/21 01:51:00;;;;;;;6.00;2.17;;;128.50;1715.20;;;;;;5055744;28;20025;-65
2022/01/21 01:53:35;;;;;;;9.10;2.83;;;128.50;1715.20;;;;;;5055554;28;20036;-62
2022/01/21 01:56:03;;;;;;;5.28;2.53;;;128.50;1740.80;;;;;;5055498;28;20518;-61
2022/01/21 01:58:35;;;;;;;6.78;2.83;;;128.50;1689.60;;;;;;5055368;28;20037;-62
2022/01/21 02:01:00;;;;;;;6.43;2.60;;;128.50;1664.00;;;;;;5055683;28;20037;-62
2022/01/21 02:03:26;;;;;;;6.10;2.35;;;128.50;1664.00;;;;;;5055405;28;20025;-60
2022/01/21 02:05:52;;;;;;;8.32;2.33;;;128.60;1664.00;;;;;;5055712;28;20465;-60
2022/01/21 02:08:17;;;;;;;6.97;2.30;;;128.50;1664.00;;;;;;5055057;28;20032;-60
2022/01/21 02:10:43;;;;;;;5.63;2.17;;;128.50;1689.60;;;;;;5055395;28;20056;-60
2022/01/21 02:13:24;;;;;;;9.32;2.90;;;128.60;1689.60;;;;;;5055440;28;20086;-60
2022/01/21 02:16:01;;;;;;;6.80;2.30;;;128.60;1638.40;;;;;;5055216;28;20040;-60
2022/01/21 02:21:40;;;;;;;9.10;3.38;;;128.40;1664.00;;;;;;5055474;28;20039;-60
2022/01/21 02:24:13;;;;;;;12.80;3.50;;;128.50;1664.00;;;;;;5054944;28;20036;-60
2022/01/21 02:26:39;;;;;;;8.57;4.18;;;128.60;1664.00;;;;;;5054912;28;20025;-60
2022/01/21 02:29:06;;;;;;;8.05;3.58;;;128.60;1664.00;;;;;;5054716;28;20374;-60
2022/01/21 02:31:33;;;;;;;11.57;3.38;;;128.50;1689.60;;;;;;5054803;28;20466;-60
2022/01/21 02:34:00;;;;;;;7.82;2.65;;;128.50;1638.40;;;;;;5054932;28;20029;-60
2022/01/21 02:36:26;;;;;;;5.95;2.50;;;128.50;1664.00;;;;;;5054856;28;20032;-60
2022/01/21 02:38:52;;;;;;;8.00;2.47;;;128.50;1638.40;;;;;;5054635;28;20029;-60
2022/01/21 02:41:18;;;;;;;7.38;2.63;;;128.40;1638.40;;;;;;5054654;28;20025;-60
2022/01/21 02:43:44;;;;;;;10.43;2.58;;;128.30;1689.60;;;;;;5054659;28;20055;-59
2022/01/21 02:46:10;;;;;;;6.20;2.55;;;128.30;1664.00;;;;;;5054452;28;20424;-60
2022/01/21 02:48:38;;;;;;;8.93;2.70;;;128.30;1689.60;;;;;;5054583;28;20021;-60
2022/01/21 02:51:09;;;;;;;5.90;2.55;;;128.30;1689.60;;;;;;5054351;28;20055;-60
2022/01/21 02:54:04;;;;;;;7.18;2.30;;;128.40;1689.60;;;;;;5054264;28;20021;-60
2022/01/21 02:56:23;;;;;;;5.03;2.78;;;128.50;1689.60;;;;;;5054236;28;20484;-60
2022/01/21 02:58:49;;;;;;;6.80;2.83;;;128.40;1689.60;;;;;;5053784;28;20132;-60
2022/01/21 03:01:16;;;;;;;7.50;2.65;;;128.50;1689.60;;;;;;5054251;28;20032;-59
2022/01/21 03:03:43;;;;;;;5.63;2.90;;;128.40;1715.20;;;;;;5054243;28;20057;-60
2022/01/21 03:06:09;;;;;;;6.93;2.97;;;128.40;1689.60;;;;;;5054132;28;20479;-60
2022/01/21 03:08:35;;;;;;;8.23;2.70;;;128.40;1689.60;;;;;;5054066;28;20032;-60
2022/01/21 03:11:00;;;;;;;8.60;3.30;;;128.20;1664.00;;;;;;5053871;28;20076;-60
2022/01/21 03:13:26;;;;;;;6.68;3.25;;;128.20;1689.60;;;;;;5053991;28;20029;-60
2022/01/21 03:15:52;;;;;;;6.68;3.20;;;128.20;1689.60;;;;;;5054215;28;20033;-60
2022/01/21 03:18:19;;;;;;;5.78;2.63;;;128.30;1689.60;;;;;;5053896;28;20025;-60
2022/01/21 03:20:46;;;;;;;11.48;4.15;;;128.30;1689.60;;;;;;5054169;28;20163;-60
2022/01/21 03:23:17;;;;;;;5.10;2.30;;;128.30;1664.00;;;;;;5053755;28;20056;-60
2022/01/21 03:25:46;;;;;;;5.97;2.78;;;128.40;1689.60;;;;;;5054043;28;20388;-60
2022/01/21 03:28:12;;;;;;;6.10;2.85;;;128.30;1664.00;;;;;;5053922;28;20025;-60
2022/01/21 03:30:39;;;;;;;7.85;2.05;;;128.30;1689.60;;;;;;5053760;28;20029;-60
2022/01/21 03:33:05;;;;;;;6.38;2.80;;;128.20;1689.60;;;;;;5053784;28;20525;-60
2022/01/21 03:35:32;;;;;;;6.85;2.40;;;128.30;1664.00;;;;;;5053705;28;20024;-60
2022/01/21 03:37:57;;;;;;;4.70;1.77;;;128.40;1664.00;;;;;;5053547;28;20510;-60
2022/01/21 03:40:24;;;;;;;6.47;2.53;;;128.30;1664.00;;;;;;5053482;28;20029;-60
2022/01/21 03:42:50;;;;;;;5.47;2.33;;;128.20;1638.40;;;;;;5053704;28;20351;-60
2022/01/21 03:45:15;;;;;;;8.82;2.60;;;128.20;1664.00;;;;;;5053624;28;20535;-60
2022/01/21 03:47:44;;;;;;;7.22;2.28;;;128.20;1689.60;;;;;;5053403;28;20489;-60
2022/01/21 03:52:56;;;;;;;4.75;2.00;;;128.30;1664.00;;;;;;5053696;28;20060;-60
2022/01/21 03:55:21;;;;;;;3.95;2.47;;;128.10;1664.00;;;;;;5053973;28;20029;-60
2022/01/21 03:57:47;;;;;;;5.32;2.20;;;128.20;1664.00;;;;;;5053489;28;20083;-60
2022/01/21 04:00:18;;;;;;;6.85;2.45;;;128.20;1664.00;;;;;;5053353;28;20056;-60
2022/01/21 04:02:44;;;;;;;7.88;2.75;;;128.30;1638.40;;;;;;5053473;28;20025;-59
2022/01/21 04:05:10;;;;;;;15.48;3.08;;;128.40;1638.40;;;;;;5053476;28;20037;-62
2022/01/21 04:07:36;;;;;;;7.22;2.70;;;128.40;1715.20;;;;;;5053412;28;20796;-60
2022/01/21 04:10:05;;;;;;;11.77;3.83;;;128.50;1715.20;;;;;;5053199;28;20025;-60
2022/01/21 04:12:30;;;;;;;8.25;3.00;;;128.40;1689.60;;;;;;5056086;28;20017;-60
2022/01/21 04:14:59;;;;;;;15.43;3.28;;;128.40;1638.40;;;;;;5057252;28;20481;-61
2022/01/21 04:17:26;;;;;;;17.10;3.30;;;128.40;1638.40;;;;;;5057249;28;20100;-59
2022/01/21 04:19:52;;;;;;;7.95;3.80;;;128.30;1638.40;;;;;;5057228;28;20044;-61
2022/01/21 04:22:18;;;;;;;9.05;3.58;;;128.20;1638.40;;;;;;5057323;28;20021;-61
2022/01/21 04:24:45;;;;;;;9.00;3.35;;;128.30;1612.80;;;;;;5057355;28;20024;-61
2022/01/21 04:27:12;;;;;;;8.02;3.20;;;128.30;1612.80;;;;;;5057435;28;20471;-61
2022/01/21 04:29:38;;;;;;;6.03;3.10;;;128.30;1587.20;;;;;;5057224;28;20040;-60
2022/01/21 04:32:05;;;;;;;9.70;3.22;;;128.30;1587.20;;;;;;5057112;28;20017;-61
2022/01/21 04:34:31;;;;;;;10.18;4.47;;;128.20;1561.60;;;;;;5057140;28;20425;-61
2022/01/21 04:36:57;;;;;;;9.73;3.35;;;128.10;1587.20;;;;;;5056947;28;20495;-61
2022/01/21 04:39:29;;;;;;;7.55;3.22;;;128.00;1638.40;;;;;;5057039;28;20025;-60
2022/01/21 04:47:23;;;;;;;4.95;2.70;;;128.00;1612.80;;;;;;5056995;28;20036;-61
2022/01/21 04:49:50;;;;;;;8.70;4.60;;;103.30;1587.20;;;;;;5056574;28;20390;-61
2022/01/21 04:52:16;;;;;;;7.25;3.40;;;103.20;1612.80;;;;;;5056571;28;20029;-61
2022/01/21 04:54:42;;;;;;;8.93;3.90;;;103.10;1638.40;;;;;;5056563;28;20036;-61
2022/01/21 04:57:08;;;;;;;12.05;4.95;;;103.10;1612.80;;;;;;5057013;28;20104;-61
2022/01/21 04:59:36;;;;;;;9.93;4.53;;;103.00;1587.20;;;;;;5056571;28;20079;-61
2022/01/21 05:02:02;;;;;;;11.20;5.68;;;102.90;1612.80;;;;;;5055555;28;20430;-61
2022/01/21 05:04:28;;;;;;;13.98;5.45;;;102.90;1612.80;;;;;;5056704;28;20394;-61
2022/01/21 05:06:54;;;;;;;11.75;5.25;;;102.90;1664.00;;;;;;5056401;28;20035;-61
2022/01/21 05:09:28;;;;;;;9.32;4.10;;;102.90;1638.40;;;;;;5056449;28;20374;-61
2022/01/21 05:11:55;;;;;;;8.35;4.05;;;102.90;1638.40;;;;;;5056578;28;20035;-61
2022/01/21 05:14:39;;;;;;;10.30;3.72;;;102.90;1638.40;;;;;;5056483;28;20060;-60
2022/01/21 05:17:06;;;;;;;12.02;4.53;;;102.90;1664.00;;;;;;5056452;28;20031;-61
2022/01/21 05:19:32;;;;;;;15.50;7.15;;;102.90;1638.40;;;;;;5056241;28;20520;-60
2022/01/21 05:21:58;;;;;;;20.35;6.85;;;103.00;1638.40;;;;;;5055911;28;20100;-60
2022/01/21 05:24:23;;;;;;;18.92;6.75;;;103.00;1638.40;;;;;;5056246;28;20037;-60
2022/01/21 05:26:56;;;;;;;13.63;6.28;;;103.00;1638.40;;;;;;5056176;28;20379;-60
2022/01/21 05:29:25;;;;;;;19.10;6.97;;;103.00;1638.40;;;;;;5056096;28;20059;-60
2022/01/21 05:31:51;;;;;;;20.20;8.30;;;103.00;1638.40;;;;;;5056749;28;20082;-61
2022/01/21 05:34:16;;;;;;;25.40;10.18;;;103.00;1612.80;;;;;;5056032;28;20068;-60
2022/01/21 05:36:42;;;;;;;25.20;10.02;;;102.90;1638.40;;;;;;5056096;28;20029;-60
2022/01/21 05:39:09;;;;;;;21.10;8.80;;;102.80;1664.00;;;;;;5055912;28;20032;-60
2022/01/21 05:41:35;;;;;;;18.38;8.60;;;102.90;1638.40;;;;;;5055779;28;20378;-60
2022/01/21 05:44:06;;;;;;;78.38;44.45;;;102.90;1664.00;;;;;;5054556;28;20079;-60
2022/01/21 05:49:06;;;;;;;228.20;111.05;;;102.90;1664.00;;;;;;5055771;28;20021;-60
2022/01/21 05:51:32;;;;;;;294.33;137.82;;;102.90;1689.60;;;;;;5055701;28;20359;-60
2022/01/21 05:53:57;;;;;;;263.35;119.75;;;102.90;1689.60;;;;;;5055624;28;20021;-61
2022/01/21 05:56:25;;;;;;;215.48;98.25;;;102.90;1689.60;;;;;;5055740;28;20386;-61
2022/01/21 05:58:52;;;;;;;196.68;92.85;;;102.90;1689.60;;;;;;5055348;28;20128;-61
2022/01/21 06:01:17;;;;;;;150.48;71.15;;;102.80;1689.60;;;;;;5055762;28;20028;-61
2022/01/21 06:03:43;;;;;;;83.43;43.67;;;102.80;1689.60;;;;;;5055424;28;20116;-62
2022/01/21 06:06:10;;;;;;;71.38;31.42;;;102.80;1689.60;;;;;;5055614;28;20029;-60
2022/01/21 06:08:37;;;;;;;67.63;27.95;;;102.80;1689.60;;;;;;5055219;28;20360;-60
2022/01/21 06:11:03;;;;;;;59.45;22.92;;;102.80;1715.20;;;;;;5055162;28;20120;-60
2022/01/21 06:13:29;;;;;;;42.92;19.30;;;102.80;1689.60;;;;;;5055314;28;20046;-61
2022/01/21 06:15:56;;;;;;;31.98;14.82;;;102.90;1715.20;;;;;;5054879;28;20120;-61
2022/01/21 06:18:22;;;;;;;28.52;12.77;;;102.90;1715.20;;;;;;5055024;28;20029;-61
2022/01/21 06:20:48;;;;;;;25.02;12.40;;;102.80;1715.20;;;;;;5053916;28;20086;-61
2022/01/21 06:23:14;;;;;;;33.53;16.08;;;102.80;1740.80;;;;;;5055153;28;20471;-60
2022/01/21 06:25:40;;;;;;;28.25;13.43;;;102.90;1715.20;;;;;;5055066;28;20032;-61
2022/01/21 06:28:05;;;;;;;18.65;9.80;;;102.90;1766.40;;;;;;5055258;28;20052;-60
2022/01/21 06:30:32;;;;;;;13.82;6.50;;;102.90;1817.60;;;;;;5055064;28;20607;-60
2022/01/21 06:32:57;;;;;;;10.43;5.03;;;102.90;1740.80;;;;;;5054868;28;20032;-59
2022/01/21 06:35:23;;;;;;;11.35;5.30;;;102.90;1766.40;;;;;;5054182;28;20032;-60
2022/01/21 06:37:49;;;;;;;8.20;4.80;;;102.90;1740.80;;;;;;5054861;28;20029;-60
2022/01/21 06:40:17;;;;;;;15.45;8.35;;;102.90;1740.80;;;;;;5054619;28;20379;-60
2022/01/21 06:42:44;;;;;;;35.60;14.52;;;103.00;1740.80;;;;;;5054789;28;20021;-60
2022/01/21 06:45:10;;;;;;;43.58;17.95;;;103.00;1715.20;;;;;;5054514;28;20044;-60
2022/01/21 06:47:36;;;;;;;53.33;21.77;;;103.00;1740.80;;;;;;5054749;28;20033;-60
2022/01/21 06:50:02;;;;;;;40.85;18.08;;;102.90;1740.80;;;;;;5054817;28;20511;-60
2022/01/21 06:52:29;;;;;;;31.52;14.07;;;103.00;1740.80;;;;;;5054917;28;20025;-60
2022/01/21 06:54:56;;;;;;;32.30;15.13;;;103.00;1740.80;;;;;;5054548;28;20443;-60
2022/01/21 06:57:22;;;;;;;41.40;18.55;;;103.00;1740.80;;;;;;5054392;28;20143;-59
2022/01/21 06:59:48;;;;;;;35.13;16.40;;;102.90;1740.80;;;;;;5054003;28;20138;-60
2022/01/21 07:02:14;;;;;;;42.05;17.50;;;103.00;1766.40;;;;;;5054591;28;20029;-60
2022/01/21 07:04:40;;;;;;;37.30;15.25;;;103.00;1740.80;;;;;;5054188;28;20045;-60
2022/01/21 07:07:06;;;;;;;27.35;12.82;;;103.00;1740.80;;;;;;5054193;28;20113;-60
2022/01/21 07:09:32;;;;;;;19.88;10.73;;;103.00;1740.80;;;;;;5054304;28;20029;-60
2022/01/21 07:11:58;;;;;;;16.40;8.80;;;103.00;1740.80;;;;;;5054334;28;20059;-60
2022/01/21 07:14:23;;;;;;;13.60;6.72;;;103.00;1740.80;;;;;;5054023;28;20418;-60
2022/01/21 07:16:50;;;;;;;12.18;7.05;;;103.00;1715.20;;;;;;5054072;28;20029;-60
2022/01/21 07:19:16;;;;;;;10.10;5.93;;;103.00;1715.20;;;;;;5053936;28;20475;-60
2022/01/21 07:21:42;;;;;;;14.50;6.85;;;103.00;1740.80;;;;;;5054181;28;20033;-60
2022/01/21 07:24:08;;;;;;;9.95;5.75;;;102.90;1715.20;;;;;;5054305;28;20044;-60
2022/01/21 07:26:34;;;;;;;8.13;4.50;;;103.00;1740.80;;;;;;5053753;28;20032;-60
2022/01/21 07:28:59;;;;;;;9.75;4.93;;;103.00;1715.20;;;;;;5053763;28;20025;-60
2022/01/21 07:31:26;;;;;;;13.48;6.55;;;103.00;1715.20;;;;;;5053807;28;20029;-60
2022/01/21 07:33:52;;;;;;;14.77;5.72;;;103.00;1740.80;;;;;;5054538;28;20055;-61
2022/01/21 07:36:18;;;;;;;10.90;4.88;;;103.00;1715.20;;;;;;5053932;28;20086;-62
2022/01/21 07:38:44;;;;;;;10.70;5.53;;;103.10;1740.80;;;;;;5053581;28;20033;-62
2022/01/21 07:41:10;;;;;;;8.70;3.67;;;103.10;1715.20;;;;;;5053695;28;20029;-61
2022/01/21 07:43:35;;;;;;;15.25;4.95;;;103.10;1689.60;;;;;;5053442;28;20025;-62
2022/01/21 07:46:01;;;;;;;16.80;6.47;;;103.10;1715.20;;;;;;5053547;28;20029;-61
2022/01/21 07:48:27;;;;;;;13.13;4.95;;;103.10;1715.20;;;;;;5053375;28;20439;-61
2022/01/21 07:50:52;;;;;;;10.50;4.43;;;103.10;1689.60;;;;;;5053586;28;20120;-61
2022/01/21 07:53:19;;;;;;;13.05;5.93;;;103.10;1689.60;;;;;;5053494;28;20039;-61
2022/01/21 07:55:45;;;;;;;13.80;5.55;;;103.10;1664.00;;;;;;5053618;28;20032;-61
2022/01/21 07:58:12;;;;;;;12.63;6.40;;;103.10;1664.00;;;;;;5053370;28;20420;-61
2022/01/21 08:00:38;;;;;;;14.57;5.45;;;103.10;1664.00;;;;;;5053970;28;20095;-61
2022/01/21 08:03:04;;;;;;;10.75;4.88;;;103.10;1638.40;;;;;;5053690;28;20032;-61
2022/01/21 08:05:33;;;;;;;15.48;5.25;;;103.20;1638.40;;;;;;5053458;28;20052;-61
2022/01/21 08:07:59;;;;;;;9.65;4.88;;;103.20;1664.00;;;;;;5053546;28;20025;-60
2022/01/21 08:10:25;;;;;;;14.20;4.70;;;103.20;1664.00;;;;;;5053408;28;20037;-61
2022/01/21 08:12:51;;;;;;;7.68;3.45;;;103.20;1664.00;;;;;;5054112;28;20048;-61
2022/01/21 08:15:16;;;;;;;5.68;3.30;;;103.20;1638.40;;;;;;5052565;28;20095;-61
2022/01/21 08:17:42;;;;;;;8.55;3.00;;;103.20;1664.00;;;;;;5053580;28;20099;-61
2022/01/21 08:20:08;;;;;;;8.57;3.90;;;103.20;1638.40;;;;;;5053273;28;20033;-61
2022/01/21 08:22:34;;;;;;;7.53;4.15;;;103.20;1638.40;;;;;;5053039;28;20029;-61
2022/01/21 08:25:00;;;;;;;7.00;3.28;;;103.20;1664.00;;;;;;5053271;28;20036;-61
2022/01/21 08:27:26;;;;;;;6.20;3.05;;;103.20;1638.40;;;;;;5053323;28;20033;-61
2022/01/21 08:29:52;;;;;;;6.72;3.38;;;103.20;1638.40;;;;;;5053156;28;20120;-61
2022/01/21 08:32:20;;;;;;;7.25;2.90;;;103.30;1638.40;;;;;;5053142;28;20422;-61
2022/01/21 08:34:45;;;;;;;8.40;3.70;;;103.30;1612.80;;;;;;5053067;28;20021;-61
2022/01/21 08:37:11;;;;;;;8.57;4.13;;;103.30;1612.80;;;;;;5053170;28;20111;-61
2022/01/21 08:39:37;;;;;;;18.67;5.63;;;103.30;1612.80;;;;;;5053088;28;20068;-61
2022/01/21 08:42:06;;;;;;;18.83;6.18;;;103.20;1612.80;;;;;;5053222;28;20036;-61
2022/01/21 08:44:32;;;;;;;13.88;5.28;;;103.30;1664.00;;;;;;5053086;28;20033;-61
2022/01/21 08:46:57;;;;;;;9.90;5.93;;;103.30;1638.40;;;;;;5052228;28;20033;-61
2022/01/21 08:49:23;;;;;;;8.75;4.22;;;128.00;1638.40;;;;;;5053274;28;20386;-61
2022/01/21 08:51:52;;;;;;;11.10;4.97;;;128.00;1638.40;;;;;;5053229;28;20159;-61
2022/01/21 08:54:20;;;;;;;8.32;4.05;;;128.00;1612.80;;;;;;5053070;28;20048;-65
2022/01/21 08:56:47;;;;;;;11.82;3.80;;;128.00;1612.80;;;;;;5051764;28;20532;-60
2022/01/21 08:59:14;;;;;;;19.92;4.55;;;128.10;1638.40;;;;;;5056367;28;20056;-60
2022/01/21 09:01:39;;;;;;;11.57;4.60;;;128.00;1612.80;;;;;;5056759;28;20025;-60
2022/01/21 09:04:05;;;;;;;793.30;68.30;;;128.00;1587.20;;;;;;5056410;28;20037;-60
2022/01/21 09:06:31;;;;;;;290.80;25.27;;;128.00;1612.80;;;;;;5056599;28;20056;-59
2022/01/21 09:08:57;;;;;;;68.72;9.63;;;128.00;1612.80;;;;;;5056183;28;20021;-60
2022/01/21 09:11:23;;;;;;;40.47;7.13;;;128.10;1612.80;;;;;;5056456;28;20029;-61
2022/01/21 09:13:48;;;;;;;26.52;6.55;;;128.20;1664.00;;;;;;5056480;28;20079;-61
2022/01/21 09:16:16;;;;;;;24.42;8.05;;;128.30;1612.80;;;;;;5061691;28;20028;-61
2022/01/21 09:18:54;;;;;;;22.95;7.80;;;128.40;1587.20;;;;;;5065326;28;20409;-60
2022/01/21 09:21:24;;;;;;;21.05;9.75;;;128.40;1587.20;;;;;;5062652;28;20029;-60
2022/01/21 09:23:51;;;;;;;20.42;9.57;;;128.50;1561.60;;;;;;5063735;28;20037;-60
2022/01/21 09:26:19;;;;;;;22.08;9.93;;;128.60;1536.00;;;;;;5065541;28;20555;-60
2022/01/21 09:28:45;;;;;;;18.25;7.32;;;128.50;1536.00;;;;;;5064981;28;20021;-59
2022/01/21 09:31:11;;;;;;;14.05;5.53;;;128.50;1536.00;;;;;;5063690;28;20366;-60
2022/01/21 09:33:37;;;;;;;12.38;4.53;;;128.60;1510.40;;;;;;5065409;28;20019;-60
2022/01/21 09:36:03;;;;;;;10.02;4.53;;;128.50;1484.80;;;;;;5064996;28;20040;-60
2022/01/21 09:38:29;;;;;;;10.50;4.63;;;128.50;1484.80;;;;;;5063536;28;20474;-60
2022/01/21 09:40:55;;;;;;;11.60;4.40;;;128.60;1484.80;;;;;;5060286;28;20116;-59
2022/01/21 09:43:22;;;;;;;14.40;5.32;;;128.60;1484.80;;;;;;5064646;28;20028;-60
2022/01/21 09:45:51;;;;;;;17.95;5.78;;;128.50;1510.40;;;;;;5064663;28;20060;-60
2022/01/21 09:48:23;;;;;;;11.63;4.63;;;128.60;1510.40;;;;;;5061194;28;20029;-61
2022/01/21 09:50:55;;;;;;;13.60;5.13;;;128.60;1459.20;;;;;;5063567;28;20051;-60
2022/01/21 09:53:27;;;;;;;9.73;4.25;;;128.60;1484.80;;;;;;5061114;28;20423;-60
2022/01/21 09:55:56;;;;;;;14.82;4.95;;;128.60;1459.20;;;;;;5063160;28;20370;-60
2022/01/21 09:58:22;;;;;;;13.80;5.32;;;128.70;1459.20;;;;;;5063973;28;20016;-60
2022/01/21 10:00:48;;;;;;;14.27;5.22;;;128.70;1459.20;;;;;;5064844;28;20872;-61
2022/01/21 10:03:15;;;;;;;20.58;6.35;;;128.70;1459.20;;;;;;5063022;28;20111;-60
2022/01/21 10:05:46;;;;;;;14.75;5.22;;;128.80;1536.00;;;;;;5064659;28;20054;-61
2022/01/21 10:08:14;;;;;;;15.10;6.68;;;128.80;1484.80;;;;;;5064880;28;20017;-62
2022/01/21 10:10:44;;;;;;;14.48;5.18;;;128.90;1459.20;;;;;;5063131;28;20025;-60
2022/01/21 10:13:10;;;;;;;10.98;4.47;;;128.90;1433.60;;;;;;5060682;28;20017;-66
2022/01/21 10:15:37;;;;;;;12.15;4.68;;;128.90;1408.00;;;;;;5054010;28;20021;-65
2022/01/21 10:18:10;;;;;;;9.13;4.78;;;128.90;1459.20;;;;;;5063516;28;20031;-64
2022/01/21 10:20:37;;;;;;;17.25;5.78;;;128.90;1382.40;;;;;;5059284;28;20528;-63
2022/01/21 10:23:08;;;;;;;15.55;5.63;;;128.90;1408.00;;;;;;5063507;28;20381;-64
2022/01/21 10:25:36;;;;;;;17.65;5.15;;;128.90;1408.00;;;;;;5064434;28;20036;-62
2022/01/21 10:28:13;;;;;;;12.13;5.45;;;128.90;1433.60;;;;;;5063360;28;20024;-64
2022/01/21 10:30:40;;;;;;;16.85;5.18;;;128.90;1433.60;;;;;;5061011;28;20128;-66
2022/01/21 10:33:19;;;;;;;14.27;4.97;;;153.60;1408.00;;;;;;5063316;28;20021;-66
2022/01/21 10:35:48;;;;;;;38.53;16.45;;;153.60;1356.80;;;;;;5062066;28;20417;-74
2022/01/21 10:38:31;;;;;;;35.35;19.27;;;128.90;1356.80;;;;;;5062026;28;20021;-62
2022/01/21 10:41:09;;;;;;;19.73;11.77;;;128.90;1382.40;;;;;;5055035;28;20052;-65
2022/01/21 10:43:35;;;;;;;17.85;11.60;;;128.90;1382.40;;;;;;5054454;28;20123;-73
2022/01/21 10:46:03;;;;;;;28.63;17.38;;;128.90;1408.00;;;;;;5054582;28;20502;-62
2022/01/21 10:48:49;;;;;;;24.48;12.10;;;128.90;1408.00;;;;;;5054639;28;20471;-64
2022/01/21 10:51:20;;;;;;;39.80;21.13;;;128.80;1433.60;;;;;;5054376;28;20021;-66
2022/01/21 10:53:46;;;;;;;36.08;21.30;;;128.80;1408.00;;;;;;5053831;28;20116;-65
2022/01/21 10:56:17;;;;;;;34.85;19.45;;;128.80;1408.00;;;;;;5054554;28;20048;-64
2022/01/21 10:58:45;;;;;;;44.53;27.38;;;128.80;1382.40;;;;;;5053938;28;20045;-63
2022/01/21 11:01:17;;;;;;;56.30;31.65;;;128.90;1382.40;;;;;;5054163;28;20078;-72
2022/01/21 11:04:10;;;;;;;72.10;38.83;;;128.80;1382.40;;;;;;5054504;28;20032;-74
2022/01/21 11:06:49;;;;;;;58.25;32.53;;;128.80;1408.00;;;;;;5054084;28;20029;-63
2022/01/21 11:09:23;;;;;;;33.38;19.08;;;128.70;1408.00;;;;;;5054254;28;20078;-73
2022/01/21 11:12:07;;;;;;;27.50;13.80;;;128.70;1382.40;;;;;;5054371;28;20040;-68
2022/01/21 11:14:34;;;;;;;21.27;10.05;;;128.80;1408.00;;;;;;5053789;28;20032;-65
2022/01/21 11:17:08;;;;;;;32.33;12.75;;;128.80;1382.40;;;;;;5053948;28;20344;-65
2022/01/21 11:19:35;;;;;;;83.80;31.50;;;128.90;1382.40;;;;;;5053702;28;20027;-68
2022/01/21 11:22:04;;;;;;;66.40;27.27;;;128.90;1382.40;;;;;;5053798;28;20087;-65
2022/01/21 11:24:30;;;;;;;36.03;16.38;;;128.90;1356.80;;;;;;5053716;28;20036;-63
2022/01/21 11:27:10;;;;;;;29.60;14.85;;;128.80;1382.40;;;;;;5053890;28;20107;-63
2022/01/21 11:29:36;;;;;;;28.30;13.15;;;128.90;1382.40;;;;;;5053749;28;20478;-63
2022/01/21 11:32:03;;;;;;;16.15;8.48;;;128.90;1382.40;;;;;;5054092;28;20029;-62
2022/01/21 11:34:30;;;;;;;17.02;7.55;;;128.90;1356.80;;;;;;5053318;28;20021;-62
2022/01/21 11:36:57;;;;;;;23.70;10.38;;;128.90;1356.80;;;;;;5053389;28;20033;-61
2022/01/21 11:39:25;;;;;;;27.45;10.02;;;128.90;1331.20;;;;;;5053497;28;20071;-63
2022/01/21 11:41:55;;;;;;;27.65;10.52;;;128.90;1331.20;;;;;;5053613;28;20051;-61
2022/01/21 11:44:24;;;;;;;43.13;23.77;;;128.90;1356.80;;;;;;5063179;28;20035;-61
2022/01/21 11:49:28;;;;;;;36.65;20.50;;;128.90;1356.80;;;;;;5059306;28;20056;-62
2022/01/21 11:52:18;;;;;;;30.33;13.57;;;128.90;1356.80;;;;;;5063548;28;20104;-60
2022/01/21 11:54:45;;;;;;;22.27;9.23;;;128.90;1331.20;;;;;;5058893;28;20029;-63
2022/01/21 11:57:12;;;;;;;26.23;10.30;;;128.90;1331.20;;;;;;5060591;28;20051;-62
2022/01/21 12:02:27;;;;;;;21.70;9.27;;;153.60;1331.20;;;;;;5051933;28;20037;-62
2022/01/21 12:04:52;;;;;;;;;;;153.60;1331.20;;;;;;5052188;28;20045;-62
2022/01/21 12:07:33;;;;;;;38.33;11.40;;;153.70;1305.60;;;;;;5052037;28;20368;-61
2022/01/21 12:10:10;;;;;;;30.30;9.80;;;153.70;1305.60;;;;;;5049755;28;20017;-60
2022/01/21 12:13:07;;;;;;;21.48;8.20;;;153.70;1305.60;;;;;;5049288;28;20108;-64
2022/01/21 12:18:52;;;;;;;14.68;4.75;;;153.70;1280.00;;;;;;5060078;28;20038;-61
2022/01/21 12:21:29;;;;;;;12.18;4.55;;;153.70;1280.00;;;;;;5061367;28;20068;-60
2022/01/21 12:23:55;;;;;;;9.68;3.20;;;153.70;1280.00;;;;;;5066893;28;20029;-63
2022/01/21 12:26:25;;;;;;;11.52;4.03;;;153.80;1254.40;;;;;;5071180;28;20418;-60
2022/01/21 12:28:54;;;;;;;23.60;10.00;;;153.80;1280.00;;;;;;5071460;28;20039;-62
2022/01/21 12:31:22;;;;;;;64.90;35.05;;;153.90;1280.00;;;;;;5063724;28;20139;-63
2022/01/21 12:34:08;;;;;;;124.03;66.32;;;153.90;1280.00;;;;;;5062192;28;20129;-60
2022/01/21 12:36:48;;;;;;;196.40;110.38;;;153.90;1254.40;;;;;;5064400;28;20029;-60
2022/01/21 12:39:40;;;;;;;92.95;54.00;;;153.80;1228.80;;;;;;5045827;28;20036;-60
2022/01/21 12:42:35;;;;;;;68.22;37.00;;;153.80;1228.80;;;;;;5064220;28;20383;-60
2022/01/21 12:45:03;;;;;;;44.00;26.33;;;153.80;1228.80;;;;;;5059244;28;20128;-61
2022/01/21 12:47:44;;;;;;;39.58;21.88;;;153.70;1280.00;;;;;;5064714;28;20032;-62
2022/01/21 12:50:38;;;;;;;34.47;18.48;;;153.60;1280.00;;;;;;5074885;28;20033;-61
2022/01/21 12:53:33;;;;;;;25.00;12.57;;;153.70;1280.00;;;;;;5061461;28;20079;-60
2022/01/21 12:56:03;;;;;;;20.90;11.45;;;153.70;1280.00;;;;;;5057946;28;20035;-60
2022/01/21 12:58:39;;;;;;;24.83;11.48;;;153.80;1280.00;;;;;;5065178;28;20071;-61
2022/01/21 13:01:08;;;;;;;19.10;8.07;;;153.70;1280.00;;;;;;5065033;28;20036;-60
2022/01/21 13:04:04;;;;;;;23.50;7.95;;;153.80;1254.40;;;;;;5065028;28;20439;-60
2022/01/21 13:06:49;;;;;;;22.67;8.88;;;153.80;1280.00;;;;;;5066191;28;20130;-63
2022/01/21 13:09:21;;;;;;;55.60;25.95;;;153.80;1254.40;;;;;;5067038;28;20028;-61
2022/01/21 13:11:56;;;;;;;169.07;75.20;;;153.70;1280.00;;;;;;5066386;28;20048;-60
2022/01/21 13:17:05;;;;;;;119.50;51.55;;;153.60;1280.00;;;;;;5062542;28;20025;-60
2022/01/21 13:19:44;;;;;;;110.05;46.72;;;128.90;1280.00;;;;;;5064874;28;20710;-60
2022/01/21 13:22:28;;;;;;;56.15;26.17;;;153.60;1280.00;;;;;;5060028;28;20380;-61